sensor_id;sensor_type;location;lat;lon;timestamp;P1;durP1;ratioP1;P2;durP2;ratioP2
47429;SDS011;33181;49.246;7.372;2024-03-23T00:53:55;23.80;;;16.00;;
47429;SDS011;33181;49.246;7.372;2024-03-23T00:56:21;27.03;;;17.60;;
47429;SDS011;33181;49.246;7.372;2024-03-23T00:58:46;26.60;;;17.10;;
47429;SDS011;33181;49.246;7.372;2024-03-23T01:01:12;26.10;;;16.37;;
47429;SDS011;33181;49.246;7.372;2024-03-23T01:03:38;23.83;;;16.07;;
47429;SDS011;33181;49.246;7.372;2024-03-23T01:06:04;27.57;;;16.60;;
47429;SDS011;33181;49.246;7.372;2024-03-23T01:08:29;28.93;;;16.90;;
47429;SDS011;33181;49.246;7.372;2024-03-23T01:10:59;23.73;;;15.00;;
47429;SDS011;33181;49.246;7.372;2024-03-23T01:13:26;23.83;;;16.03;;
47429;SDS011;33181;49.246;7.372;2024-03-23T01:15:53;26.73;;;15.70;;
47429;SDS011;33181;49.246;7.372;2024-03-23T01:18:21;25.20;;;16.80;;
47429;SDS011;33181;49.246;7.372;2024-03-23T01:20:47;26.43;;;17.23;;
47429;SDS011;33181;49.246;7.372;2024-03-23T01:23:14;26.13;;;16.87;;
47429;SDS011;33181;49.246;7.372;2024-03-23T01:25:40;26.53;;;16.73;;
47429;SDS011;33181;49.246;7.372;2024-03-23T01:28:06;27.13;;;17.73;;
47429;SDS011;33181;49.246;7.372;2024-03-23T01:30:32;27.63;;;17.27;;
47429;SDS011;33181;49.246;7.372;2024-03-23T01:33:02;26.77;;;17.00;;
47429;SDS011;33181;49.246;7.372;2024-03-23T01:35:28;24.03;;;16.77;;
47429;SDS011;33181;49.246;7.372;2024-03-23T01:37:54;28.57;;;17.90;;
47429;SDS011;33181;49.246;7.372;2024-03-23T01:40:20;26.43;;;17.30;;
47429;SDS011;33181;49.246;7.372;2024-03-23T01:42:58;28.23;;;18.30;;
47429;SDS011;33181;49.246;7.372;2024-03-23T01:45:29;27.70;;;17.23;;
47429;SDS011;33181;49.246;7.372;2024-03-23T01:47:56;32.30;;;17.60;;
47429;SDS011;33181;49.246;7.372;2024-03-23T01:50:24;25.53;;;17.60;;
47429;SDS011;33181;49.246;7.372;2024-03-23T01:52:53;30.83;;;18.57;;
47429;SDS011;33181;49.246;7.372;2024-03-23T01:55:19;29.83;;;18.57;;
47429;SDS011;33181;49.246;7.372;2024-03-23T01:57:45;26.90;;;18.40;;
47429;SDS011;33181;49.246;7.372;2024-03-23T02:00:11;25.63;;;17.40;;
47429;SDS011;33181;49.246;7.372;2024-03-23T02:02:44;29.60;;;19.43;;
47429;SDS011;33181;49.246;7.372;2024-03-23T02:05:11;27.50;;;17.93;;
47429;SDS011;33181;49.246;7.372;2024-03-23T02:07:41;29.60;;;18.13;;
47429;SDS011;33181;49.246;7.372;2024-03-23T02:10:10;29.93;;;18.53;;
47429;SDS011;33181;49.246;7.372;2024-03-23T02:12:39;29.50;;;18.60;;
47429;SDS011;33181;49.246;7.372;2024-03-23T02:15:06;31.43;;;19.13;;
47429;SDS011;33181;49.246;7.372;2024-03-23T02:17:34;35.33;;;19.20;;
47429;SDS011;33181;49.246;7.372;2024-03-23T02:20:00;36.80;;;20.47;;
47429;SDS011;33181;49.246;7.372;2024-03-23T02:22:37;32.53;;;18.77;;
47429;SDS011;33181;49.246;7.372;2024-03-23T02:25:05;32.87;;;19.67;;
47429;SDS011;33181;49.246;7.372;2024-03-23T02:27:32;32.10;;;18.43;;
47429;SDS011;33181;49.246;7.372;2024-03-23T02:29:59;31.40;;;19.13;;
47429;SDS011;33181;49.246;7.372;2024-03-23T02:32:25;36.57;;;20.40;;
47429;SDS011;33181;49.246;7.372;2024-03-23T02:34:51;32.97;;;19.07;;
47429;SDS011;33181;49.246;7.372;2024-03-23T02:37:17;32.83;;;19.57;;
47429;SDS011;33181;49.246;7.372;2024-03-23T02:39:42;32.07;;;19.23;;
47429;SDS011;33181;49.246;7.372;2024-03-23T02:42:08;29.27;;;17.70;;
47429;SDS011;33181;49.246;7.372;2024-03-23T02:44:34;31.53;;;18.20;;
47429;SDS011;33181;49.246;7.372;2024-03-23T02:46:59;33.07;;;18.50;;
47429;SDS011;33181;49.246;7.372;2024-03-23T02:49:25;31.97;;;17.77;;
47429;SDS011;33181;49.246;7.372;2024-03-23T02:51:52;29.10;;;18.03;;
47429;SDS011;33181;49.246;7.372;2024-03-23T02:54:17;26.73;;;17.03;;
47429;SDS011;33181;49.246;7.372;2024-03-23T02:56:43;26.67;;;17.13;;
47429;SDS011;33181;49.246;7.372;2024-03-23T02:59:09;29.47;;;17.23;;
47429;SDS011;33181;49.246;7.372;2024-03-23T03:01:35;26.77;;;16.17;;
47429;SDS011;33181;49.246;7.372;2024-03-23T03:04:00;29.03;;;15.67;;
47429;SDS011;33181;49.246;7.372;2024-03-23T03:06:26;22.13;;;13.60;;
47429;SDS011;33181;49.246;7.372;2024-03-23T03:08:52;19.87;;;12.80;;
47429;SDS011;33181;49.246;7.372;2024-03-23T03:11:18;21.13;;;12.33;;
47429;SDS011;33181;49.246;7.372;2024-03-23T03:13:44;19.27;;;11.70;;
47429;SDS011;33181;49.246;7.372;2024-03-23T03:16:10;20.27;;;11.20;;
47429;SDS011;33181;49.246;7.372;2024-03-23T03:18:36;20.53;;;12.43;;
47429;SDS011;33181;49.246;7.372;2024-03-23T03:21:02;20.57;;;12.97;;
47429;SDS011;33181;49.246;7.372;2024-03-23T03:23:31;18.77;;;11.23;;
47429;SDS011;33181;49.246;7.372;2024-03-23T03:25:57;19.97;;;10.60;;
47429;SDS011;33181;49.246;7.372;2024-03-23T03:28:23;16.50;;;10.60;;
47429;SDS011;33181;49.246;7.372;2024-03-23T03:30:51;17.17;;;10.87;;
47429;SDS011;33181;49.246;7.372;2024-03-23T03:33:16;16.87;;;10.60;;
47429;SDS011;33181;49.246;7.372;2024-03-23T03:35:42;15.13;;;8.93;;
47429;SDS011;33181;49.246;7.372;2024-03-23T03:38:08;14.43;;;9.53;;
47429;SDS011;33181;49.246;7.372;2024-03-23T03:40:34;12.83;;;8.67;;
47429;SDS011;33181;49.246;7.372;2024-03-23T03:43:00;13.00;;;8.13;;
47429;SDS011;33181;49.246;7.372;2024-03-23T03:45:26;11.37;;;7.40;;
47429;SDS011;33181;49.246;7.372;2024-03-23T03:47:52;10.40;;;6.50;;
47429;SDS011;33181;49.246;7.372;2024-03-23T03:50:17;9.50;;;6.50;;
47429;SDS011;33181;49.246;7.372;2024-03-23T03:52:44;7.80;;;5.03;;
47429;SDS011;33181;49.246;7.372;2024-03-23T03:55:14;7.73;;;5.20;;
47429;SDS011;33181;49.246;7.372;2024-03-23T03:57:40;8.60;;;5.10;;
47429;SDS011;33181;49.246;7.372;2024-03-23T04:00:06;6.80;;;4.80;;
47429;SDS011;33181;49.246;7.372;2024-03-23T04:02:36;5.70;;;4.30;;
47429;SDS011;33181;49.246;7.372;2024-03-23T04:05:04;8.20;;;4.10;;
47429;SDS011;33181;49.246;7.372;2024-03-23T04:07:31;6.40;;;4.17;;
47429;SDS011;33181;49.246;7.372;2024-03-23T04:09:57;5.20;;;3.80;;
47429;SDS011;33181;49.246;7.372;2024-03-23T04:12:23;5.10;;;3.93;;
47429;SDS011;33181;49.246;7.372;2024-03-23T04:14:49;6.17;;;4.30;;
47429;SDS011;33181;49.246;7.372;2024-03-23T04:17:15;6.57;;;4.70;;
47429;SDS011;33181;49.246;7.372;2024-03-23T04:19:41;6.60;;;5.47;;
47429;SDS011;33181;49.246;7.372;2024-03-23T04:22:07;6.77;;;5.60;;
47429;SDS011;33181;49.246;7.372;2024-03-23T04:24:33;8.20;;;5.40;;
47429;SDS011;33181;49.246;7.372;2024-03-23T04:26:58;6.17;;;4.97;;
47429;SDS011;33181;49.246;7.372;2024-03-23T04:29:24;6.20;;;4.70;;
47429;SDS011;33181;49.246;7.372;2024-03-23T04:31:51;5.47;;;4.50;;
47429;SDS011;33181;49.246;7.372;2024-03-23T04:34:17;5.53;;;4.10;;
47429;SDS011;33181;49.246;7.372;2024-03-23T04:36:43;5.50;;;4.50;;
47429;SDS011;33181;49.246;7.372;2024-03-23T04:39:11;5.73;;;4.03;;
47429;SDS011;33181;49.246;7.372;2024-03-23T04:41:37;4.77;;;3.77;;
47429;SDS011;33181;49.246;7.372;2024-03-23T04:44:03;5.77;;;4.00;;
47429;SDS011;33181;49.246;7.372;2024-03-23T04:46:29;4.27;;;3.40;;
47429;SDS011;33181;49.246;7.372;2024-03-23T04:48:54;5.10;;;3.93;;
47429;SDS011;33181;49.246;7.372;2024-03-23T04:51:22;5.63;;;4.50;;
47429;SDS011;33181;49.246;7.372;2024-03-23T04:53:48;6.07;;;4.40;;
47429;SDS011;33181;49.246;7.372;2024-03-23T04:56:17;5.27;;;4.10;;
47429;SDS011;33181;49.246;7.372;2024-03-23T04:58:43;4.00;;;3.20;;
47429;SDS011;33181;49.246;7.372;2024-03-23T05:01:09;3.77;;;2.97;;
47429;SDS011;33181;49.246;7.372;2024-03-23T05:03:36;3.70;;;2.40;;
47429;SDS011;33181;49.246;7.372;2024-03-23T05:06:01;3.30;;;2.50;;
47429;SDS011;33181;49.246;7.372;2024-03-23T05:08:27;7.10;;;2.10;;
47429;SDS011;33181;49.246;7.372;2024-03-23T05:10:56;2.80;;;2.10;;
47429;SDS011;33181;49.246;7.372;2024-03-23T05:13:24;3.87;;;2.10;;
47429;SDS011;33181;49.246;7.372;2024-03-23T05:15:51;2.80;;;1.90;;
47429;SDS011;33181;49.246;7.372;2024-03-23T05:18:21;3.10;;;2.00;;
47429;SDS011;33181;49.246;7.372;2024-03-23T05:20:47;3.97;;;2.10;;
47429;SDS011;33181;49.246;7.372;2024-03-23T05:23:13;3.57;;;2.13;;
47429;SDS011;33181;49.246;7.372;2024-03-23T05:25:38;2.90;;;2.00;;
47429;SDS011;33181;49.246;7.372;2024-03-23T05:28:04;2.53;;;1.83;;
47429;SDS011;33181;49.246;7.372;2024-03-23T05:30:30;3.00;;;1.97;;
47429;SDS011;33181;49.246;7.372;2024-03-23T05:32:56;2.47;;;1.73;;
47429;SDS011;33181;49.246;7.372;2024-03-23T05:35:22;2.20;;;1.47;;
47429;SDS011;33181;49.246;7.372;2024-03-23T05:37:47;2.73;;;1.83;;
47429;SDS011;33181;49.246;7.372;2024-03-23T05:40:13;2.40;;;1.60;;
47429;SDS011;33181;49.246;7.372;2024-03-23T05:42:40;2.40;;;1.57;;
47429;SDS011;33181;49.246;7.372;2024-03-23T05:45:06;2.90;;;1.70;;
47429;SDS011;33181;49.246;7.372;2024-03-23T05:47:33;2.37;;;1.63;;
47429;SDS011;33181;49.246;7.372;2024-03-23T05:49:58;3.13;;;1.80;;
47429;SDS011;33181;49.246;7.372;2024-03-23T05:52:24;6.53;;;1.77;;
47429;SDS011;33181;49.246;7.372;2024-03-23T05:54:50;2.63;;;1.80;;
47429;SDS011;33181;49.246;7.372;2024-03-23T05:57:17;2.50;;;1.90;;
47429;SDS011;33181;49.246;7.372;2024-03-23T05:59:44;2.70;;;2.10;;
47429;SDS011;33181;49.246;7.372;2024-03-23T06:02:12;2.80;;;1.90;;
47429;SDS011;33181;49.246;7.372;2024-03-23T06:04:39;2.90;;;2.20;;
47429;SDS011;33181;49.246;7.372;2024-03-23T06:07:05;3.30;;;2.10;;
47429;SDS011;33181;49.246;7.372;2024-03-23T06:09:38;3.87;;;2.10;;
47429;SDS011;33181;49.246;7.372;2024-03-23T06:12:07;6.30;;;2.10;;
47429;SDS011;33181;49.246;7.372;2024-03-23T06:14:33;2.97;;;2.17;;
47429;SDS011;33181;49.246;7.372;2024-03-23T06:17:00;3.43;;;2.47;;
47429;SDS011;33181;49.246;7.372;2024-03-23T06:19:26;3.00;;;2.37;;
47429;SDS011;33181;49.246;7.372;2024-03-23T06:21:53;3.93;;;2.20;;
47429;SDS011;33181;49.246;7.372;2024-03-23T06:24:20;2.70;;;1.90;;
47429;SDS011;33181;49.246;7.372;2024-03-23T06:26:47;2.80;;;2.00;;
47429;SDS011;33181;49.246;7.372;2024-03-23T06:29:13;2.90;;;2.13;;
47429;SDS011;33181;49.246;7.372;2024-03-23T06:31:38;4.03;;;2.10;;
47429;SDS011;33181;49.246;7.372;2024-03-23T06:34:04;3.50;;;2.37;;
47429;SDS011;33181;49.246;7.372;2024-03-23T06:36:30;3.10;;;1.80;;
47429;SDS011;33181;49.246;7.372;2024-03-23T06:38:56;3.40;;;2.27;;
47429;SDS011;33181;49.246;7.372;2024-03-23T06:41:22;4.57;;;2.33;;
47429;SDS011;33181;49.246;7.372;2024-03-23T06:43:48;4.10;;;2.30;;
47429;SDS011;33181;49.246;7.372;2024-03-23T06:46:13;9.03;;;2.60;;
47429;SDS011;33181;49.246;7.372;2024-03-23T06:48:39;4.47;;;2.80;;
47429;SDS011;33181;49.246;7.372;2024-03-23T06:51:05;5.03;;;2.30;;
47429;SDS011;33181;49.246;7.372;2024-03-23T06:53:31;4.13;;;2.30;;
47429;SDS011;33181;49.246;7.372;2024-03-23T06:55:57;5.73;;;3.13;;
47429;SDS011;33181;49.246;7.372;2024-03-23T06:58:23;6.57;;;2.80;;
47429;SDS011;33181;49.246;7.372;2024-03-23T07:00:50;7.33;;;3.10;;
47429;SDS011;33181;49.246;7.372;2024-03-23T07:03:19;7.17;;;3.20;;
47429;SDS011;33181;49.246;7.372;2024-03-23T07:05:46;5.97;;;3.80;;
47429;SDS011;33181;49.246;7.372;2024-03-23T07:08:12;11.90;;;4.50;;
47429;SDS011;33181;49.246;7.372;2024-03-23T07:10:41;11.03;;;4.30;;
47429;SDS011;33181;49.246;7.372;2024-03-23T07:13:06;9.10;;;4.33;;
47429;SDS011;33181;49.246;7.372;2024-03-23T07:15:33;10.50;;;4.07;;
47429;SDS011;33181;49.246;7.372;2024-03-23T07:17:59;11.30;;;4.53;;
47429;SDS011;33181;49.246;7.372;2024-03-23T07:20:24;9.20;;;4.10;;
47429;SDS011;33181;49.246;7.372;2024-03-23T07:22:50;7.83;;;3.97;;
47429;SDS011;33181;49.246;7.372;2024-03-23T07:25:16;10.90;;;4.43;;
47429;SDS011;33181;49.246;7.372;2024-03-23T07:27:42;13.10;;;4.57;;
47429;SDS011;33181;49.246;7.372;2024-03-23T07:30:07;10.27;;;4.83;;
47429;SDS011;33181;49.246;7.372;2024-03-23T07:32:33;9.37;;;5.10;;
47429;SDS011;33181;49.246;7.372;2024-03-23T07:35:00;13.40;;;5.63;;
47429;SDS011;33181;49.246;7.372;2024-03-23T07:37:26;11.87;;;5.10;;
47429;SDS011;33181;49.246;7.372;2024-03-23T07:39:52;10.00;;;4.67;;
47429;SDS011;33181;49.246;7.372;2024-03-23T07:42:18;8.27;;;4.80;;
47429;SDS011;33181;49.246;7.372;2024-03-23T07:44:43;16.07;;;5.30;;
47429;SDS011;33181;49.246;7.372;2024-03-23T07:47:09;12.50;;;4.80;;
47429;SDS011;33181;49.246;7.372;2024-03-23T07:49:35;7.77;;;4.73;;
47429;SDS011;33181;49.246;7.372;2024-03-23T07:52:00;8.77;;;5.20;;
47429;SDS011;33181;49.246;7.372;2024-03-23T07:54:26;11.67;;;5.00;;
47429;SDS011;33181;49.246;7.372;2024-03-23T07:56:52;12.10;;;5.27;;
47429;SDS011;33181;49.246;7.372;2024-03-23T07:59:17;9.63;;;4.63;;
47429;SDS011;33181;49.246;7.372;2024-03-23T08:01:44;8.30;;;4.20;;
47429;SDS011;33181;49.246;7.372;2024-03-23T08:04:10;11.73;;;5.30;;
47429;SDS011;33181;49.246;7.372;2024-03-23T08:06:38;11.27;;;6.07;;
47429;SDS011;33181;49.246;7.372;2024-03-23T08:09:04;11.50;;;6.40;;
47429;SDS011;33181;49.246;7.372;2024-03-23T08:11:31;11.70;;;6.53;;
47429;SDS011;33181;49.246;7.372;2024-03-23T08:13:59;12.40;;;6.60;;
47429;SDS011;33181;49.246;7.372;2024-03-23T08:16:26;12.57;;;6.67;;
47429;SDS011;33181;49.246;7.372;2024-03-23T08:18:52;13.17;;;7.20;;
47429;SDS011;33181;49.246;7.372;2024-03-23T08:21:18;16.90;;;6.63;;
47429;SDS011;33181;49.246;7.372;2024-03-23T08:23:44;14.60;;;7.37;;
47429;SDS011;33181;49.246;7.372;2024-03-23T08:26:10;10.23;;;6.10;;
47429;SDS011;33181;49.246;7.372;2024-03-23T08:28:38;15.67;;;6.80;;
47429;SDS011;33181;49.246;7.372;2024-03-23T08:31:05;10.93;;;6.23;;
47429;SDS011;33181;49.246;7.372;2024-03-23T08:33:33;17.17;;;7.10;;
47429;SDS011;33181;49.246;7.372;2024-03-23T08:36:03;15.70;;;7.80;;
47429;SDS011;33181;49.246;7.372;2024-03-23T08:38:31;22.80;;;7.93;;
47429;SDS011;33181;49.246;7.372;2024-03-23T08:40:57;12.20;;;7.77;;
47429;SDS011;33181;49.246;7.372;2024-03-23T08:43:31;16.50;;;9.23;;
47429;SDS011;33181;49.246;7.372;2024-03-23T08:48:36;17.20;;;8.80;;
47429;SDS011;33181;49.246;7.372;2024-03-23T08:51:08;17.87;;;9.20;;
47429;SDS011;33181;49.246;7.372;2024-03-23T08:53:36;19.00;;;9.00;;
47429;SDS011;33181;49.246;7.372;2024-03-23T08:56:03;17.80;;;7.70;;
47429;SDS011;33181;49.246;7.372;2024-03-23T08:58:31;13.20;;;7.80;;
47429;SDS011;33181;49.246;7.372;2024-03-23T09:01:03;12.57;;;6.60;;
47429;SDS011;33181;49.246;7.372;2024-03-23T09:03:36;12.10;;;6.07;;
47429;SDS011;33181;49.246;7.372;2024-03-23T09:06:02;10.47;;;5.47;;
47429;SDS011;33181;49.246;7.372;2024-03-23T09:08:35;10.40;;;5.60;;
47429;SDS011;33181;49.246;7.372;2024-03-23T09:11:06;7.97;;;5.40;;
47429;SDS011;33181;49.246;7.372;2024-03-23T09:13:33;11.50;;;6.10;;
47429;SDS011;33181;49.246;7.372;2024-03-23T09:16:00;11.53;;;5.53;;
47429;SDS011;33181;49.246;7.372;2024-03-23T09:18:26;14.13;;;5.47;;
47429;SDS011;33181;49.246;7.372;2024-03-23T09:20:52;9.50;;;5.03;;
47429;SDS011;33181;49.246;7.372;2024-03-23T09:23:19;11.00;;;5.10;;
47429;SDS011;33181;49.246;7.372;2024-03-23T09:25:48;8.93;;;4.77;;
47429;SDS011;33181;49.246;7.372;2024-03-23T09:28:16;10.13;;;4.93;;
47429;SDS011;33181;49.246;7.372;2024-03-23T09:30:41;11.70;;;4.70;;
47429;SDS011;33181;49.246;7.372;2024-03-23T09:33:11;10.20;;;4.80;;
47429;SDS011;33181;49.246;7.372;2024-03-23T09:35:38;8.20;;;4.60;;
47429;SDS011;33181;49.246;7.372;2024-03-23T09:38:05;9.77;;;4.50;;
47429;SDS011;33181;49.246;7.372;2024-03-23T09:40:32;11.87;;;4.83;;
47429;SDS011;33181;49.246;7.372;2024-03-23T09:42:59;9.53;;;4.83;;
47429;SDS011;33181;49.246;7.372;2024-03-23T09:45:28;7.30;;;4.40;;
47429;SDS011;33181;49.246;7.372;2024-03-23T09:47:55;7.97;;;4.50;;
47429;SDS011;33181;49.246;7.372;2024-03-23T09:50:21;8.50;;;4.63;;
47429;SDS011;33181;49.246;7.372;2024-03-23T09:52:48;9.53;;;4.70;;
47429;SDS011;33181;49.246;7.372;2024-03-23T09:55:14;13.03;;;5.50;;
47429;SDS011;33181;49.246;7.372;2024-03-23T09:57:40;10.13;;;5.13;;
47429;SDS011;33181;49.246;7.372;2024-03-23T10:00:08;11.37;;;4.93;;
47429;SDS011;33181;49.246;7.372;2024-03-23T10:02:35;14.50;;;5.10;;
47429;SDS011;33181;49.246;7.372;2024-03-23T10:05:01;8.40;;;4.67;;
47429;SDS011;33181;49.246;7.372;2024-03-23T10:07:27;8.83;;;4.43;;
47429;SDS011;33181;49.246;7.372;2024-03-23T10:09:53;7.63;;;4.20;;
47429;SDS011;33181;49.246;7.372;2024-03-23T10:12:19;9.90;;;4.30;;
47429;SDS011;33181;49.246;7.372;2024-03-23T10:14:45;6.73;;;3.93;;
47429;SDS011;33181;49.246;7.372;2024-03-23T10:17:18;10.13;;;4.27;;
47429;SDS011;33181;49.246;7.372;2024-03-23T10:19:49;7.67;;;4.40;;
47429;SDS011;33181;49.246;7.372;2024-03-23T10:22:20;8.43;;;4.07;;
47429;SDS011;33181;49.246;7.372;2024-03-23T10:24:48;7.90;;;3.60;;
47429;SDS011;33181;49.246;7.372;2024-03-23T10:27:18;6.70;;;3.43;;
47429;SDS011;33181;49.246;7.372;2024-03-23T10:29:46;8.73;;;3.50;;
47429;SDS011;33181;49.246;7.372;2024-03-23T10:32:13;10.33;;;3.43;;
47429;SDS011;33181;49.246;7.372;2024-03-23T10:34:41;9.33;;;3.50;;
47429;SDS011;33181;49.246;7.372;2024-03-23T10:37:07;10.20;;;3.33;;
47429;SDS011;33181;49.246;7.372;2024-03-23T10:42:04;9.60;;;3.30;;
47429;SDS011;33181;49.246;7.372;2024-03-23T10:44:35;7.43;;;3.20;;
47429;SDS011;33181;49.246;7.372;2024-03-23T10:47:02;9.13;;;3.87;;
47429;SDS011;33181;49.246;7.372;2024-03-23T10:49:29;10.73;;;3.30;;
47429;SDS011;33181;49.246;7.372;2024-03-23T10:51:57;7.80;;;3.13;;
47429;SDS011;33181;49.246;7.372;2024-03-23T10:54:32;9.60;;;4.10;;
47429;SDS011;33181;49.246;7.372;2024-03-23T10:59:34;5.80;;;2.80;;
47429;SDS011;33181;49.246;7.372;2024-03-23T11:02:03;7.17;;;3.10;;
47429;SDS011;33181;49.246;7.372;2024-03-23T11:04:36;8.10;;;3.03;;
47429;SDS011;33181;49.246;7.372;2024-03-23T11:09:51;5.77;;;2.63;;
47429;SDS011;33181;49.246;7.372;2024-03-23T11:15:00;6.17;;;2.63;;
47429;SDS011;33181;49.246;7.372;2024-03-23T11:17:39;5.70;;;3.10;;
47429;SDS011;33181;49.246;7.372;2024-03-23T11:20:06;5.07;;;3.00;;
47429;SDS011;33181;49.246;7.372;2024-03-23T11:25:12;6.60;;;3.90;;
47429;SDS011;33181;49.246;7.372;2024-03-23T11:27:45;6.30;;;3.30;;
47429;SDS011;33181;49.246;7.372;2024-03-23T11:30:15;5.30;;;2.77;;
47429;SDS011;33181;49.246;7.372;2024-03-23T11:32:45;8.27;;;3.67;;
47429;SDS011;33181;49.246;7.372;2024-03-23T11:38:08;6.37;;;3.17;;
47429;SDS011;33181;49.246;7.372;2024-03-23T11:40:45;8.87;;;3.73;;
47429;SDS011;33181;49.246;7.372;2024-03-23T11:43:15;9.50;;;3.50;;
47429;SDS011;33181;49.246;7.372;2024-03-23T11:45:49;8.70;;;3.30;;
47429;SDS011;33181;49.246;7.372;2024-03-23T11:48:20;5.10;;;2.73;;
47429;SDS011;33181;49.246;7.372;2024-03-23T11:50:48;5.10;;;2.03;;
47429;SDS011;33181;49.246;7.372;2024-03-23T11:53:16;7.30;;;2.47;;
47429;SDS011;33181;49.246;7.372;2024-03-23T11:55:51;4.67;;;2.30;;
47429;SDS011;33181;49.246;7.372;2024-03-23T11:58:21;5.87;;;2.43;;
47429;SDS011;33181;49.246;7.372;2024-03-23T12:00:50;8.17;;;2.90;;
47429;SDS011;33181;49.246;7.372;2024-03-23T12:03:23;9.20;;;3.63;;
47429;SDS011;33181;49.246;7.372;2024-03-23T12:06:09;4.97;;;2.80;;
47429;SDS011;33181;49.246;7.372;2024-03-23T12:08:35;4.00;;;2.13;;
47429;SDS011;33181;49.246;7.372;2024-03-23T12:11:05;6.70;;;2.43;;
47429;SDS011;33181;49.246;7.372;2024-03-23T12:13:32;5.30;;;2.57;;
47429;SDS011;33181;49.246;7.372;2024-03-23T12:16:20;6.53;;;2.30;;
47429;SDS011;33181;49.246;7.372;2024-03-23T12:18:49;4.07;;;2.50;;
47429;SDS011;33181;49.246;7.372;2024-03-23T12:21:18;3.50;;;2.10;;
47429;SDS011;33181;49.246;7.372;2024-03-23T12:23:43;6.80;;;2.30;;
47429;SDS011;33181;49.246;7.372;2024-03-23T12:26:11;5.03;;;2.10;;
47429;SDS011;33181;49.246;7.372;2024-03-23T12:28:37;3.50;;;2.13;;
47429;SDS011;33181;49.246;7.372;2024-03-23T12:31:04;4.30;;;2.30;;
47429;SDS011;33181;49.246;7.372;2024-03-23T12:33:30;3.70;;;2.00;;
47429;SDS011;33181;49.246;7.372;2024-03-23T12:35:56;5.30;;;2.03;;
47429;SDS011;33181;49.246;7.372;2024-03-23T12:38:22;4.17;;;2.40;;
47429;SDS011;33181;49.246;7.372;2024-03-23T12:40:48;5.50;;;2.60;;
47429;SDS011;33181;49.246;7.372;2024-03-23T12:43:15;4.50;;;2.20;;
47429;SDS011;33181;49.246;7.372;2024-03-23T12:45:48;4.40;;;2.60;;
47429;SDS011;33181;49.246;7.372;2024-03-23T12:48:14;7.20;;;2.97;;
47429;SDS011;33181;49.246;7.372;2024-03-23T12:50:46;4.50;;;2.20;;
47429;SDS011;33181;49.246;7.372;2024-03-23T12:53:11;6.10;;;2.30;;
47429;SDS011;33181;49.246;7.372;2024-03-23T12:55:37;4.47;;;2.60;;
47429;SDS011;33181;49.246;7.372;2024-03-23T12:58:03;4.60;;;2.50;;
47429;SDS011;33181;49.246;7.372;2024-03-23T13:00:29;5.00;;;2.50;;
47429;SDS011;33181;49.246;7.372;2024-03-23T13:02:55;5.40;;;2.40;;
47429;SDS011;33181;49.246;7.372;2024-03-23T13:05:21;5.33;;;2.70;;
47429;SDS011;33181;49.246;7.372;2024-03-23T13:07:47;9.57;;;2.80;;
47429;SDS011;33181;49.246;7.372;2024-03-23T13:10:12;4.90;;;2.27;;
47429;SDS011;33181;49.246;7.372;2024-03-23T13:12:39;7.00;;;2.40;;
47429;SDS011;33181;49.246;7.372;2024-03-23T13:15:05;4.97;;;2.40;;
47429;SDS011;33181;49.246;7.372;2024-03-23T13:17:31;6.60;;;2.80;;
47429;SDS011;33181;49.246;7.372;2024-03-23T13:19:57;5.27;;;2.60;;
47429;SDS011;33181;49.246;7.372;2024-03-23T13:22:23;7.80;;;2.77;;
47429;SDS011;33181;49.246;7.372;2024-03-23T13:24:48;4.70;;;2.47;;
47429;SDS011;33181;49.246;7.372;2024-03-23T13:27:15;6.90;;;2.97;;
47429;SDS011;33181;49.246;7.372;2024-03-23T13:29:41;6.13;;;2.97;;
47429;SDS011;33181;49.246;7.372;2024-03-23T13:32:06;4.50;;;2.80;;
47429;SDS011;33181;49.246;7.372;2024-03-23T13:34:35;4.47;;;2.60;;
47429;SDS011;33181;49.246;7.372;2024-03-23T13:37:01;4.93;;;2.90;;
47429;SDS011;33181;49.246;7.372;2024-03-23T13:39:26;5.67;;;2.80;;
47429;SDS011;33181;49.246;7.372;2024-03-23T13:41:52;7.07;;;2.67;;
47429;SDS011;33181;49.246;7.372;2024-03-23T13:44:20;3.30;;;2.40;;
47429;SDS011;33181;49.246;7.372;2024-03-23T13:46:46;6.40;;;2.70;;
47429;SDS011;33181;49.246;7.372;2024-03-23T13:49:24;4.70;;;2.63;;
47429;SDS011;33181;49.246;7.372;2024-03-23T13:51:55;3.57;;;2.70;;
47429;SDS011;33181;49.246;7.372;2024-03-23T13:54:23;6.23;;;3.80;;
47429;SDS011;33181;49.246;7.372;2024-03-23T13:56:52;5.47;;;3.00;;
47429;SDS011;33181;49.246;7.372;2024-03-23T13:59:21;5.13;;;3.20;;
47429;SDS011;33181;49.246;7.372;2024-03-23T14:01:48;6.87;;;2.90;;
47429;SDS011;33181;49.246;7.372;2024-03-23T14:04:14;4.23;;;2.80;;
47429;SDS011;33181;49.246;7.372;2024-03-23T14:06:45;6.20;;;2.80;;
47429;SDS011;33181;49.246;7.372;2024-03-23T14:09:11;6.90;;;2.90;;
47429;SDS011;33181;49.246;7.372;2024-03-23T14:11:39;7.73;;;2.60;;
47429;SDS011;33181;49.246;7.372;2024-03-23T14:14:06;4.33;;;2.63;;
47429;SDS011;33181;49.246;7.372;2024-03-23T14:16:34;6.07;;;2.60;;
47429;SDS011;33181;49.246;7.372;2024-03-23T14:19:00;4.17;;;2.23;;
47429;SDS011;33181;49.246;7.372;2024-03-23T14:21:26;5.13;;;2.50;;
47429;SDS011;33181;49.246;7.372;2024-03-23T14:23:52;5.83;;;2.73;;
47429;SDS011;33181;49.246;7.372;2024-03-23T14:26:19;6.23;;;2.70;;
47429;SDS011;33181;49.246;7.372;2024-03-23T14:28:45;5.47;;;2.30;;
47429;SDS011;33181;49.246;7.372;2024-03-23T14:31:11;5.13;;;2.70;;
47429;SDS011;33181;49.246;7.372;2024-03-23T14:33:37;4.00;;;2.40;;
47429;SDS011;33181;49.246;7.372;2024-03-23T14:36:06;4.37;;;2.40;;
47429;SDS011;33181;49.246;7.372;2024-03-23T14:38:32;6.70;;;2.30;;
47429;SDS011;33181;49.246;7.372;2024-03-23T14:41:00;4.73;;;2.00;;
47429;SDS011;33181;49.246;7.372;2024-03-23T14:43:28;3.90;;;2.10;;
47429;SDS011;33181;49.246;7.372;2024-03-23T14:46:07;4.00;;;2.00;;
47429;SDS011;33181;49.246;7.372;2024-03-23T14:48:41;4.30;;;1.93;;
47429;SDS011;33181;49.246;7.372;2024-03-23T14:51:11;4.73;;;2.20;;
47429;SDS011;33181;49.246;7.372;2024-03-23T14:53:38;3.17;;;1.90;;
47429;SDS011;33181;49.246;7.372;2024-03-23T14:56:10;3.37;;;2.00;;
47429;SDS011;33181;49.246;7.372;2024-03-23T14:58:38;3.30;;;1.80;;
47429;SDS011;33181;49.246;7.372;2024-03-23T15:01:04;2.63;;;1.70;;
47429;SDS011;33181;49.246;7.372;2024-03-23T15:03:34;3.90;;;1.70;;
47429;SDS011;33181;49.246;7.372;2024-03-23T15:06:04;3.70;;;2.00;;
47429;SDS011;33181;49.246;7.372;2024-03-23T15:08:30;3.70;;;2.00;;
47429;SDS011;33181;49.246;7.372;2024-03-23T15:11:00;3.00;;;1.80;;
47429;SDS011;33181;49.246;7.372;2024-03-23T15:13:30;4.07;;;2.03;;
47429;SDS011;33181;49.246;7.372;2024-03-23T15:16:03;3.50;;;2.00;;
47429;SDS011;33181;49.246;7.372;2024-03-23T15:18:30;4.43;;;2.20;;
47429;SDS011;33181;49.246;7.372;2024-03-23T15:21:00;5.43;;;2.27;;
47429;SDS011;33181;49.246;7.372;2024-03-23T15:23:27;3.83;;;2.10;;
47429;SDS011;33181;49.246;7.372;2024-03-23T15:25:57;5.93;;;1.73;;
47429;SDS011;33181;49.246;7.372;2024-03-23T15:28:24;5.63;;;2.10;;
47429;SDS011;33181;49.246;7.372;2024-03-23T15:31:26;3.40;;;2.30;;
47429;SDS011;33181;49.246;7.372;2024-03-23T15:33:51;5.10;;;2.53;;
47429;SDS011;33181;49.246;7.372;2024-03-23T15:36:17;7.53;;;2.30;;
47429;SDS011;33181;49.246;7.372;2024-03-23T15:38:43;3.40;;;2.10;;
47429;SDS011;33181;49.246;7.372;2024-03-23T15:41:10;7.37;;;2.40;;
47429;SDS011;33181;49.246;7.372;2024-03-23T15:43:35;4.70;;;2.37;;
47429;SDS011;33181;49.246;7.372;2024-03-23T15:46:04;6.90;;;3.00;;
47429;SDS011;33181;49.246;7.372;2024-03-23T15:48:31;3.60;;;2.30;;
47429;SDS011;33181;49.246;7.372;2024-03-23T15:51:06;3.33;;;1.80;;
47429;SDS011;33181;49.246;7.372;2024-03-23T15:53:32;2.80;;;2.20;;